createdAt,value
2022-08-08T00:00:54.656Z,186.51969
2022-08-08T00:06:03.769Z,194.4065
2022-08-08T00:11:07.932Z,198.54545
2022-08-08T00:16:14.942Z,188.44444
2022-08-08T00:21:16.933Z,200.66667
2022-08-08T00:26:26.300Z,177.33333
2022-08-08T00:32:28.742Z,190.4
2022-08-08T00:37:47.742Z,176.45283
2022-08-08T00:43:06.043Z,175.57895
2022-08-08T00:48:29.312Z,172.99628
2022-08-08T00:53:32.270Z,199.60166
2022-08-08T00:58:54.070Z,179.1145
2022-08-08T01:04:02.028Z,183.68872
2022-08-08T01:09:36.487Z,174.71161
2022-08-08T01:14:53.998Z,180.01533
2022-08-08T01:20:03.284Z,168.81752
2022-08-08T01:25:05.370Z,158.63415
2022-08-08T01:30:10.160Z,152.81356
2022-08-08T01:35:12.484Z,147.30033
2022-08-08T01:40:14.748Z,150.02007
2022-08-08T01:45:16.574Z,145.96721
2022-08-08T01:50:20.757Z,144.65147
2022-08-08T01:56:27.134Z,144.65147
2022-08-08T02:02:00.330Z,140.17834
2022-08-08T02:07:06.655Z,140.80511
2022-08-08T02:12:08.678Z,147.30033
2022-08-08T02:17:20.399Z,146.63158
2022-08-08T02:22:28.245Z,145.96721
2022-08-08T02:27:38.918Z,154.23891
2022-08-08T02:32:44.692Z,152.81356
2022-08-08T02:37:53.390Z,151.40741
2022-08-08T02:44:35.447Z,163.21708
2022-08-08T02:49:50.882Z,150.02007
2022-08-08T02:54:53.430Z,168.81752
2022-08-08T02:59:58.476Z,154.9589
2022-08-08T03:05:17.616Z,149.33333
2022-08-08T03:10:33.412Z,147.30033
2022-08-08T03:16:00.297Z,140.17834
2022-08-08T03:21:10.200Z,147.30033
2022-08-08T03:26:16.484Z,145.96721
2022-08-08T03:31:25.435Z,152.81356
2022-08-08T03:36:30.092Z,141.4359
2022-08-08T03:42:28.742Z,145.96721
2022-08-08T03:47:39.514Z,145.96721
2022-08-08T03:52:47.895Z,148.65116
2022-08-08T03:58:36.129Z,142.70968
2022-08-08T04:03:58.388Z,152.10811
2022-08-08T04:09:10.758Z,141.4359
2022-08-08T04:14:35.373Z,160.14035
2022-08-08T04:19:37.895Z,146.63158
2022-08-08T04:24:40.644Z,145.30719
2022-08-08T04:29:55.396Z,150.02007
2022-08-08T04:35:02.958Z,147.97351
2022-08-08T04:40:08.145Z,150.02007
2022-08-08T04:45:14.163Z,150.02007
2022-08-08T04:50:23.919Z,152.10811
2022-08-08T04:55:29.251Z,152.81356
2022-08-08T05:00:49.933Z,159.38462
2022-08-08T05:05:53.634Z,149.33333
2022-08-08T05:10:55.322Z,146.63158
2022-08-08T05:16:47.961Z,167.18841
2022-08-08T05:22:00.010Z,150.71141
2022-08-08T05:27:02.422Z,152.10811
2022-08-08T05:32:06.152Z,147.97351
2022-08-08T05:37:18.516Z,72.60125
2022-08-08T05:42:25.733Z,90.31829
2022-08-08T05:47:29.897Z,102.76289
2022-08-08T05:52:54.780Z,113.69697
2022-08-08T05:58:04.067Z,149.33333
2022-08-08T06:03:07.628Z,147.97351
2022-08-08T06:08:28.266Z,162.43972
2022-08-08T06:13:47.066Z,161.66784
2022-08-08T06:18:50.142Z,162.43972
2022-08-08T06:24:02.278Z,163.21708
2022-08-08T06:29:10.678Z,157.14879
2022-08-08T06:34:52.552Z,163.21708
2022-08-08T06:40:16.169Z,157.88889
2022-08-08T06:45:18.499Z,154.23891
2022-08-08T06:50:32.334Z,152.81356
2022-08-08T06:55:37.427Z,154.23891
2022-08-08T07:00:41.027Z,157.88889
2022-08-08T07:05:42.834Z,158.63415
2022-08-08T07:11:03.627Z,157.14879
2022-08-08T07:16:10.259Z,156.41379
2022-08-08T07:21:19.078Z,158.63415
2022-08-08T07:26:28.942Z,156.41379
2022-08-08T07:31:35.300Z,154.23891
2022-08-08T07:36:37.427Z,160.14035
2022-08-08T07:42:03.527Z,153.52381
2022-08-08T07:47:06.483Z,151.40741
2022-08-08T07:52:09.033Z,152.81356
2022-08-08T07:57:17.058Z,152.81356
2022-08-08T08:02:34.910Z,156.41379
2022-08-08T08:07:40.102Z,154.9589
2022-08-08T08:12:43.531Z,157.14879
2022-08-08T08:17:48.506Z,154.23891
2022-08-08T08:22:51.122Z,156.41379
2022-08-08T08:27:53.374Z,150.71141
2022-08-08T08:32:55.016Z,154.9589
2022-08-08T08:38:15.796Z,151.40741
2022-08-08T08:43:20.290Z,150.71141
2022-08-08T08:48:28.908Z,148.65116
2022-08-08T08:53:56.199Z,152.81356
2022-08-08T08:59:01.715Z,151.40741
2022-08-08T09:04:03.715Z,153.52381
2022-08-08T09:09:05.330Z,156.41379
2022-08-08T09:14:09.276Z,154.9589
2022-08-08T09:19:12.198Z,155.68385
2022-08-08T09:24:14.472Z,152.81356
2022-08-08T09:29:22.553Z,154.9589
2022-08-08T09:34:32.442Z,156.41379
2022-08-08T09:39:34.708Z,155.68385
2022-08-08T09:44:38.237Z,154.23891
2022-08-08T09:49:49.851Z,152.10811
2022-08-08T09:54:52.025Z,154.9589
2022-08-08T10:00:28.719Z,160.90141
2022-08-08T10:05:36.057Z,156.41379
2022-08-08T10:10:49.794Z,156.41379
2022-08-08T10:16:00.789Z,156.41379
2022-08-08T10:21:22.940Z,159.38462
2022-08-08T10:26:30.640Z,157.88889
2022-08-08T10:31:46.733Z,157.14879
2022-08-08T10:36:49.265Z,160.14035
2022-08-08T10:41:58.830Z,159.38462
2022-08-08T10:47:20.719Z,162.43972
2022-08-08T10:52:28.119Z,158.63415
2022-08-08T10:57:45.144Z,160.14035
2022-08-08T11:02:52.325Z,159.38462
2022-08-08T11:08:38.099Z,161.66784
2022-08-08T11:13:41.054Z,165.58273
2022-08-08T11:18:53.872Z,160.14035
2022-08-08T11:24:02.125Z,161.66784
2022-08-08T11:29:04.729Z,170.47059
2022-08-08T11:34:22.911Z,162.43972
2022-08-08T11:39:27.657Z,160.14035
2022-08-08T11:44:39.111Z,158.63415
2022-08-08T11:49:42.688Z,161.66784
2022-08-08T11:54:46.683Z,160.14035
2022-08-08T11:59:58.400Z,160.14035
2022-08-08T12:05:04.288Z,162.43972
2022-08-08T12:10:08.828Z,160.90141
2022-08-08T12:15:10.744Z,160.14035
2022-08-08T12:20:14.826Z,157.14879
2022-08-08T12:25:16.448Z,160.90141
2022-08-08T12:30:21.727Z,159.38462
2022-08-08T12:35:26.860Z,160.90141
2022-08-08T12:40:29.854Z,160.90141
2022-08-08T12:45:58.204Z,160.90141
2022-08-08T12:51:04.383Z,160.90141
2022-08-08T12:56:18.713Z,164
2022-08-08T13:01:36.239Z,163.21708
2022-08-08T13:06:38.885Z,165.58273
2022-08-08T13:12:04.040Z,160.90141
2022-08-08T13:18:08.559Z,158.63415
2022-08-08T13:23:30.855Z,158.63415
2022-08-08T13:28:42.068Z,158.63415
2022-08-08T13:33:44.478Z,161.66784
2022-08-08T13:38:46.081Z,157.88889
2022-08-08T13:43:49.936Z,159.38462
2022-08-08T13:50:33.605Z,157.14879
2022-08-08T13:55:39.903Z,158.63415
2022-08-08T14:00:45.976Z,160.14035
2022-08-08T14:06:00.525Z,165.58273
2022-08-08T14:11:03.331Z,172.14815
2022-08-08T14:16:15.835Z,166.38267
2022-08-08T14:21:20.762Z,168
2022-08-08T14:26:28.106Z,166.38267
2022-08-08T14:31:36.830Z,175.57895
2022-08-08T14:37:08.293Z,172.14815
2022-08-08T14:42:10.264Z,174.71161
2022-08-08T14:47:16.898Z,174.71161
2022-08-08T14:52:23.252Z,175.57895
2022-08-08T14:58:02.985Z,180.01533
2022-08-08T15:03:16.081Z,180.92308
2022-08-08T15:08:22.111Z,180.92308
2022-08-08T15:13:40.954Z,179.1145
2022-08-08T15:19:03.132Z,184.625
2022-08-08T15:24:04.746Z,183.68872
2022-08-08T15:29:14.291Z,181.83784
2022-08-08T15:34:18.812Z,180.92308
2022-08-08T15:39:37.439Z,175.57895
2022-08-08T15:44:41.018Z,188.44444
2022-08-08T15:49:43.889Z,188.44444
2022-08-08T15:54:46.108Z,194.4065
2022-08-08T16:00:10.971Z,196.45902
2022-08-08T16:05:36.062Z,193.39271
2022-08-08T16:13:28.300Z,183.68872
2022-08-08T16:18:35.957Z,184.625
2022-08-08T16:23:37.568Z,186.51969
2022-08-08T16:28:41.479Z,194.4065
2022-08-08T16:33:59.060Z,192.3871
2022-08-08T16:39:01.310Z,201.74059
2022-08-08T16:44:12.855Z,180.92308
2022-08-08T16:49:14.653Z,185.56863
2022-08-08T16:55:18.387Z,188.44444
2022-08-08T17:00:27.422Z,188.44444
2022-08-08T17:05:31.363Z,191.38956
2022-08-08T17:10:57.923Z,190.4
2022-08-08T17:16:15.204Z,205.01695
2022-08-08T17:21:17.390Z,195.42857
2022-08-08T17:26:28.826Z,195.42857
2022-08-08T17:31:44.243Z,211.82609
2022-08-08T17:37:00.363Z,188.44444
2022-08-08T17:42:04.962Z,197.49794
2022-08-08T17:47:06.670Z,203.91561
2022-08-08T17:52:11.473Z,194.4065
2022-08-08T17:57:14.231Z,200.66667
2022-08-08T18:02:21.231Z,191.38956
2022-08-08T18:08:02.356Z,200.66667
2022-08-08T18:13:07.580Z,198.54545
2022-08-08T18:18:29.260Z,203.91561
2022-08-08T18:23:33.695Z,201.74059
2022-08-08T18:28:54.796Z,201.74059
2022-08-08T18:34:12.268Z,207.24786
2022-08-08T18:39:29.612Z,201.74059
2022-08-08T18:44:32.913Z,201.74059
2022-08-08T18:49:54.694Z,212.99563
2022-08-08T18:55:09.634Z,202.82353
2022-08-08T19:00:16.816Z,201.74059
2022-08-08T19:05:21.577Z,200.66667
2022-08-08T19:10:23.370Z,197.49794
2022-08-08T19:15:33.879Z,199.60166
2022-08-08T19:20:36.159Z,203.91561
2022-08-08T19:26:02.019Z,202.82353
2022-08-08T19:31:31.042Z,203.91561
2022-08-08T19:36:36.565Z,216.56637
2022-08-08T19:41:39.888Z,201.74059
2022-08-08T19:46:43.177Z,207.24786
2022-08-08T19:51:46.654Z,217.77778
2022-08-08T19:56:50.691Z,210.66667
2022-08-08T20:02:03.552Z,222.73303
2022-08-08T20:08:30.538Z,224
2022-08-08T20:14:31.545Z,209.51724
2022-08-08T20:19:42.247Z,212.99563
2022-08-08T20:24:45.148Z,214.17544
2022-08-08T20:30:01.078Z,220.23318
2022-08-08T20:35:03.163Z,201.74059
2022-08-08T20:40:04.829Z,214.17544
2022-08-08T20:45:06.490Z,206.12766
2022-08-08T20:50:10.015Z,214.17544
2022-08-08T20:55:16.228Z,193.39271
2022-08-08T21:00:27.497Z,198.54545
2022-08-08T21:05:31.957Z,205.01695
2022-08-08T21:10:33.854Z,210.66667
2022-08-08T21:16:05.811Z,200.66667
2022-08-08T21:21:29.755Z,214.17544
2022-08-08T21:26:42.920Z,201.74059
2022-08-08T21:31:53.030Z,200.66667
2022-08-08T21:37:05.290Z,208.37768
2022-08-08T21:42:13.043Z,208.37768
2022-08-08T21:48:08.717Z,206.12766
2022-08-08T21:54:34.835Z,212.99563
2022-08-08T22:00:02.836Z,216.56637
2022-08-08T22:05:06.456Z,201.74059
2022-08-08T22:10:09.362Z,182.75969
2022-08-08T22:15:11.206Z,192.3871
2022-08-08T22:20:23.709Z,195.42857
2022-08-08T22:25:29.960Z,202.82353
2022-08-08T22:31:21.764Z,211.82609
2022-08-08T22:36:34.346Z,201.74059
2022-08-08T22:41:36.420Z,199.60166
2022-08-08T22:46:41.152Z,190.4
2022-08-08T22:51:46.812Z,244.4878
2022-08-08T22:56:50.123Z,220.23318
2022-08-08T23:02:03.721Z,234.56604
2022-08-08T23:07:06.372Z,235.94313
2022-08-08T23:12:28.705Z,215.36564
2022-08-08T23:17:54.074Z,221.47748
2022-08-08T23:22:56.164Z,220.23318
2022-08-08T23:27:57.852Z,227.87097
2022-08-08T23:33:01.148Z,209.51724
2022-08-08T23:38:03.885Z,201.74059
2022-08-08T23:43:05.670Z,188.44444
2022-08-08T23:48:59.628Z,208.37768
2022-08-08T23:54:53.207Z,197.49794
